This is the latest recevied weather packets stored in our database for station/object N7QNM-13. If no packets are shown the sender has not sent any weather packets the latest 10 day(s).
| Time | Temp. | Humidity | Pressure | Rain* | Wind** | Luminosity | Snow |
|---|---|---|---|---|---|---|---|
| 1777600220 | 24.44° C | 34% | 1015.3 hPa | 0 mm | - | 118 W/m² | - |
| 1777599020 | 23.89° C | 33% | 1015.4 hPa | 0 mm | - | 102 W/m² | - |
| 1777591241 | 25° C | 33% | 1016.1 hPa | 0 mm | - | 545 W/m² | - |
| 1777586423 | 23.89° C | 34% | 1017 hPa | 0 mm | - | 743 W/m² | - |
| 1777584623 | 23.33° C | 34% | 1017.3 hPa | 0 mm | - | 794 W/m² | - |
| 1777584024 | 23.33° C | 35% | 1017.4 hPa | 0 mm | - | 808 W/m² | - |
| 1777581624 | 22.78° C | 39% | 1017.8 hPa | 0 mm | - | 855 W/m² | - |
| 1777578624 | 22.78° C | 42% | 1018.3 hPa | 0 mm | - | 874 W/m² | - |
| 1777578044 | 22.22° C | 44% | 1018.5 hPa | 0 mm | - | 872 W/m² | - |
| 1777574425 | 20.56° C | 47% | 1019.3 hPa | 0 mm | - | 833 W/m² | - |
| 1777573845 | 20.56° C | 47% | 1019.4 hPa | 0 mm | - | 819 W/m² | - |
| 1777561828 | 14.44° C | 64% | 1020.9 hPa | 0 mm | - | 316 W/m² | - |
| 1777561227 | 13.89° C | 66% | 1020.9 hPa | 0 mm | - | 278 W/m² | - |
| 1777560648 | 12.78° C | 73% | 1020.9 hPa | 0 mm | - | 233 W/m² | - |
| 1777559448 | 10.56° C | 79% | 1020.7 hPa | 0 mm | - | 165 W/m² | - |
| 1777555229 | 3.89° C | 88% | 1020.3 hPa | 0 mm | - | 35 W/m² | - |
| 1777554629 | 3.89° C | 88% | 1020.2 hPa | 0 mm | - | 21 W/m² | - |
| 1777548630 | 5° C | 85% | 1020.1 hPa | 0 mm | - | 0 W/m² | - |
| 1777547430 | 5° C | 83% | 1020 hPa | 0 mm | - | 0 W/m² | - |
| 1777543233 | 6.11° C | 81% | 1020 hPa | 0 mm | - | 0 W/m² | - |
| 1777537832 | 7.22° C | 80% | 1020.3 hPa | 0 mm | - | 0 W/m² | - |
| 1777536632 | 7.22° C | 78% | 1020.2 hPa | 0 mm | - | 0 W/m² | - |
| 1777534833 | 7.78° C | 76% | 1020.1 hPa | 0 mm | - | 0 W/m² | - |
| 1777534233 | 7.78° C | 75% | 1020 hPa | 0 mm | - | 0 W/m² | - |
| 1777531253 | 8.33° C | 72% | 1019.8 hPa | 0 mm | - | 0 W/m² | - |
* Rain latest hour (hover to see other rain measurements)
** Current wind speed in m/s (hover to see current wind gust speed)